sensor_id;sensor_type;location;lat;lon;timestamp;temperature;humidity
45945;DHT22;31655;48.972;10.686;2024-03-29T00:01:59;4.80;58.90
45945;DHT22;31655;48.972;10.686;2024-03-29T00:04:25;4.80;56.10
45945;DHT22;31655;48.972;10.686;2024-03-29T00:06:50;4.80;56.00
45945;DHT22;31655;48.972;10.686;2024-03-29T00:09:17;4.90;47.50
45945;DHT22;31655;48.972;10.686;2024-03-29T00:11:43;4.90;45.30
45945;DHT22;31655;48.972;10.686;2024-03-29T00:14:08;3.70;38.10
45945;DHT22;31655;48.972;10.686;2024-03-29T00:16:34;5.00;36.40
45945;DHT22;31655;48.972;10.686;2024-03-29T00:18:59;5.00;36.30
45945;DHT22;31655;48.972;10.686;2024-03-29T00:21:25;4.80;40.70
45945;DHT22;31655;48.972;10.686;2024-03-29T00:23:50;4.80;38.50
45945;DHT22;31655;48.972;10.686;2024-03-29T00:26:16;5.00;33.10
45945;DHT22;31655;48.972;10.686;2024-03-29T00:28:42;5.00;31.80
45945;DHT22;31655;48.972;10.686;2024-03-29T00:31:07;4.90;31.80
45945;DHT22;31655;48.972;10.686;2024-03-29T00:33:33;5.00;29.00
45945;DHT22;31655;48.972;10.686;2024-03-29T00:35:59;6.80;24.20
45945;DHT22;31655;48.972;10.686;2024-03-29T00:38:24;5.10;18.80
45945;DHT22;31655;48.972;10.686;2024-03-29T00:40:50;5.10;19.50
45945;DHT22;31655;48.972;10.686;2024-03-29T00:43:16;5.10;16.40
45945;DHT22;31655;48.972;10.686;2024-03-29T00:45:41;5.10;16.40
45945;DHT22;31655;48.972;10.686;2024-03-29T00:48:07;5.00;17.70
45945;DHT22;31655;48.972;10.686;2024-03-29T00:50:32;5.00;17.60
45945;DHT22;31655;48.972;10.686;2024-03-29T00:52:59;5.00;18.40
45945;DHT22;31655;48.972;10.686;2024-03-29T00:55:25;4.90;18.40
45945;DHT22;31655;48.972;10.686;2024-03-29T00:57:50;5.00;17.60
45945;DHT22;31655;48.972;10.686;2024-03-29T01:00:16;4.90;20.70
45945;DHT22;31655;48.972;10.686;2024-03-29T01:02:42;4.90;21.20
45945;DHT22;31655;48.972;10.686;2024-03-29T01:05:07;4.80;21.50
45945;DHT22;31655;48.972;10.686;2024-03-29T01:07:33;4.80;22.70
45945;DHT22;31655;48.972;10.686;2024-03-29T01:09:59;4.80;21.50
45945;DHT22;31655;48.972;10.686;2024-03-29T01:12:25;4.70;25.70
45945;DHT22;31655;48.972;10.686;2024-03-29T01:14:51;4.70;25.00
45945;DHT22;31655;48.972;10.686;2024-03-29T01:17:16;4.70;21.40
45945;DHT22;31655;48.972;10.686;2024-03-29T01:19:42;4.80;11.70
45945;DHT22;31655;48.972;10.686;2024-03-29T01:22:07;4.80;13.50
45945;DHT22;31655;48.972;10.686;2024-03-29T01:24:33;4.80;10.00
45945;DHT22;31655;48.972;10.686;2024-03-29T01:26:59;4.80;13.00
45945;DHT22;31655;48.972;10.686;2024-03-29T01:29:25;4.90;4.80
45945;DHT22;31655;48.972;10.686;2024-03-29T01:31:51;5.00;2.30
45945;DHT22;31655;48.972;10.686;2024-03-29T01:34:16;5.30;1.00
45945;DHT22;31655;48.972;10.686;2024-03-29T01:36:45;5.40;1.00
45945;DHT22;31655;48.972;10.686;2024-03-29T01:39:11;5.40;1.00
45945;DHT22;31655;48.972;10.686;2024-03-29T01:41:39;5.60;1.00
45945;DHT22;31655;48.972;10.686;2024-03-29T01:44:05;5.60;1.00
45945;DHT22;31655;48.972;10.686;2024-03-29T01:46:31;5.70;1.00
45945;DHT22;31655;48.972;10.686;2024-03-29T01:49:00;5.70;1.00
45945;DHT22;31655;48.972;10.686;2024-03-29T01:51:27;5.70;1.00
45945;DHT22;31655;48.972;10.686;2024-03-29T01:53:55;5.70;1.00
45945;DHT22;31655;48.972;10.686;2024-03-29T01:56:22;5.70;1.00
45945;DHT22;31655;48.972;10.686;2024-03-29T01:58:51;5.70;1.00
45945;DHT22;31655;48.972;10.686;2024-03-29T02:01:19;5.80;1.00
45945;DHT22;31655;48.972;10.686;2024-03-29T02:03:45;5.80;1.00
45945;DHT22;31655;48.972;10.686;2024-03-29T02:06:12;5.90;1.00
45945;DHT22;31655;48.972;10.686;2024-03-29T02:08:39;5.90;1.00
45945;DHT22;31655;48.972;10.686;2024-03-29T02:11:04;6.00;1.00
45945;DHT22;31655;48.972;10.686;2024-03-29T02:13:30;6.00;1.00
45945;DHT22;31655;48.972;10.686;2024-03-29T02:15:57;6.00;1.00
45945;DHT22;31655;48.972;10.686;2024-03-29T02:18:22;6.00;1.00
45945;DHT22;31655;48.972;10.686;2024-03-29T02:20:48;6.00;1.00
45945;DHT22;31655;48.972;10.686;2024-03-29T02:23:18;6.00;1.00
45945;DHT22;31655;48.972;10.686;2024-03-29T02:25:44;6.00;1.00
45945;DHT22;31655;48.972;10.686;2024-03-29T02:28:10;6.00;1.00
45945;DHT22;31655;48.972;10.686;2024-03-29T02:30:36;6.00;1.00
45945;DHT22;31655;48.972;10.686;2024-03-29T02:33:02;5.90;1.00
45945;DHT22;31655;48.972;10.686;2024-03-29T02:35:28;5.90;1.00
45945;DHT22;31655;48.972;10.686;2024-03-29T02:37:54;5.80;1.00
45945;DHT22;31655;48.972;10.686;2024-03-29T02:40:20;5.80;1.00
45945;DHT22;31655;48.972;10.686;2024-03-29T02:42:48;5.70;1.00
45945;DHT22;31655;48.972;10.686;2024-03-29T02:45:14;5.80;1.00
45945;DHT22;31655;48.972;10.686;2024-03-29T02:47:39;5.80;1.00
45945;DHT22;31655;48.972;10.686;2024-03-29T02:50:07;5.80;1.00
45945;DHT22;31655;48.972;10.686;2024-03-29T02:52:33;5.80;1.00
45945;DHT22;31655;48.972;10.686;2024-03-29T02:54:58;5.90;1.00
45945;DHT22;31655;48.972;10.686;2024-03-29T02:57:24;5.90;1.00
45945;DHT22;31655;48.972;10.686;2024-03-29T02:59:49;5.90;1.00
45945;DHT22;31655;48.972;10.686;2024-03-29T03:02:15;6.10;1.00
45945;DHT22;31655;48.972;10.686;2024-03-29T03:04:47;6.00;1.00
45945;DHT22;31655;48.972;10.686;2024-03-29T03:07:12;6.00;1.00
45945;DHT22;31655;48.972;10.686;2024-03-29T03:09:56;6.00;1.00
45945;DHT22;31655;48.972;10.686;2024-03-29T03:12:40;6.00;1.00
45945;DHT22;31655;48.972;10.686;2024-03-29T03:15:06;6.00;1.00
45945;DHT22;31655;48.972;10.686;2024-03-29T03:17:32;6.00;1.00
45945;DHT22;31655;48.972;10.686;2024-03-29T03:19:57;6.10;1.00
45945;DHT22;31655;48.972;10.686;2024-03-29T03:22:24;6.20;99.90
45945;DHT22;31655;48.972;10.686;2024-03-29T03:24:49;6.20;99.90
45945;DHT22;31655;48.972;10.686;2024-03-29T03:27:15;6.20;99.90
45945;DHT22;31655;48.972;10.686;2024-03-29T03:29:41;6.10;99.90
45945;DHT22;31655;48.972;10.686;2024-03-29T03:32:06;6.20;99.90
45945;DHT22;31655;48.972;10.686;2024-03-29T03:34:32;6.10;99.90
45945;DHT22;31655;48.972;10.686;2024-03-29T03:36:58;6.10;1.00
45945;DHT22;31655;48.972;10.686;2024-03-29T03:39:24;6.20;99.90
45945;DHT22;31655;48.972;10.686;2024-03-29T03:41:50;6.10;99.90
45945;DHT22;31655;48.972;10.686;2024-03-29T03:44:16;6.00;1.00
45945;DHT22;31655;48.972;10.686;2024-03-29T03:46:41;6.00;1.00
45945;DHT22;31655;48.972;10.686;2024-03-29T03:49:07;6.00;1.00
45945;DHT22;31655;48.972;10.686;2024-03-29T03:51:32;6.00;1.00
45945;DHT22;31655;48.972;10.686;2024-03-29T03:53:58;5.90;1.00
45945;DHT22;31655;48.972;10.686;2024-03-29T03:56:23;5.90;1.00
45945;DHT22;31655;48.972;10.686;2024-03-29T03:58:49;5.90;1.00
45945;DHT22;31655;48.972;10.686;2024-03-29T04:01:14;5.90;1.00
45945;DHT22;31655;48.972;10.686;2024-03-29T04:03:40;5.80;1.00
45945;DHT22;31655;48.972;10.686;2024-03-29T04:06:06;5.80;1.00
45945;DHT22;31655;48.972;10.686;2024-03-29T04:08:33;5.90;1.00
45945;DHT22;31655;48.972;10.686;2024-03-29T04:11:07;5.80;1.00
45945;DHT22;31655;48.972;10.686;2024-03-29T04:13:33;5.80;1.00
45945;DHT22;31655;48.972;10.686;2024-03-29T04:16:03;5.80;1.00
45945;DHT22;31655;48.972;10.686;2024-03-29T04:18:28;5.80;1.00
45945;DHT22;31655;48.972;10.686;2024-03-29T04:20:58;5.70;1.00
45945;DHT22;31655;48.972;10.686;2024-03-29T04:23:24;5.80;1.00
45945;DHT22;31655;48.972;10.686;2024-03-29T04:26:07;6.50;1.00
45945;DHT22;31655;48.972;10.686;2024-03-29T04:28:33;5.90;1.00
45945;DHT22;31655;48.972;10.686;2024-03-29T04:30:59;6.10;99.90
45945;DHT22;31655;48.972;10.686;2024-03-29T04:33:26;6.30;99.90
45945;DHT22;31655;48.972;10.686;2024-03-29T04:36:03;6.30;99.90
45945;DHT22;31655;48.972;10.686;2024-03-29T04:38:30;6.30;99.90
45945;DHT22;31655;48.972;10.686;2024-03-29T04:40:57;6.20;99.90
45945;DHT22;31655;48.972;10.686;2024-03-29T04:43:27;6.10;99.90
45945;DHT22;31655;48.972;10.686;2024-03-29T04:46:10;6.10;99.90
45945;DHT22;31655;48.972;10.686;2024-03-29T04:48:40;6.10;99.90
45945;DHT22;31655;48.972;10.686;2024-03-29T04:51:09;6.00;99.90
45945;DHT22;31655;48.972;10.686;2024-03-29T04:53:38;6.00;99.90
45945;DHT22;31655;48.972;10.686;2024-03-29T04:56:04;6.10;99.90
45945;DHT22;31655;48.972;10.686;2024-03-29T04:58:30;6.10;99.90
45945;DHT22;31655;48.972;10.686;2024-03-29T05:00:55;6.10;1.00
45945;DHT22;31655;48.972;10.686;2024-03-29T05:03:22;6.10;1.00
45945;DHT22;31655;48.972;10.686;2024-03-29T05:05:49;6.10;1.00
45945;DHT22;31655;48.972;10.686;2024-03-29T05:08:15;6.10;1.00
45945;DHT22;31655;48.972;10.686;2024-03-29T05:10:41;6.20;99.90
45945;DHT22;31655;48.972;10.686;2024-03-29T05:13:07;6.30;99.90
45945;DHT22;31655;48.972;10.686;2024-03-29T05:15:33;6.60;99.90
45945;DHT22;31655;48.972;10.686;2024-03-29T05:17:58;6.70;99.90
45945;DHT22;31655;48.972;10.686;2024-03-29T05:20:24;6.70;99.90
45945;DHT22;31655;48.972;10.686;2024-03-29T05:22:50;6.60;99.90
45945;DHT22;31655;48.972;10.686;2024-03-29T05:25:15;6.60;99.90
45945;DHT22;31655;48.972;10.686;2024-03-29T05:27:41;6.70;99.90
45945;DHT22;31655;48.972;10.686;2024-03-29T05:30:07;6.70;99.90
45945;DHT22;31655;48.972;10.686;2024-03-29T05:32:35;6.70;99.90
45945;DHT22;31655;48.972;10.686;2024-03-29T05:35:01;6.80;99.90
45945;DHT22;31655;48.972;10.686;2024-03-29T05:37:27;6.80;99.90
45945;DHT22;31655;48.972;10.686;2024-03-29T05:39:52;6.90;99.90
45945;DHT22;31655;48.972;10.686;2024-03-29T05:42:31;6.90;99.90
45945;DHT22;31655;48.972;10.686;2024-03-29T05:44:57;7.00;99.90
45945;DHT22;31655;48.972;10.686;2024-03-29T05:47:22;7.00;99.90
45945;DHT22;31655;48.972;10.686;2024-03-29T05:49:49;7.00;65.50
45945;DHT22;31655;48.972;10.686;2024-03-29T05:52:15;7.10;99.90
45945;DHT22;31655;48.972;10.686;2024-03-29T05:54:42;7.30;99.90
45945;DHT22;31655;48.972;10.686;2024-03-29T05:57:07;7.40;99.90
45945;DHT22;31655;48.972;10.686;2024-03-29T05:59:34;7.40;99.90
45945;DHT22;31655;48.972;10.686;2024-03-29T06:01:59;7.40;99.90
45945;DHT22;31655;48.972;10.686;2024-03-29T06:04:25;7.30;99.90
45945;DHT22;31655;48.972;10.686;2024-03-29T06:07:00;7.30;99.90
45945;DHT22;31655;48.972;10.686;2024-03-29T06:09:26;7.30;99.90
45945;DHT22;31655;48.972;10.686;2024-03-29T06:11:54;7.30;99.90
45945;DHT22;31655;48.972;10.686;2024-03-29T06:14:19;7.30;99.90
45945;DHT22;31655;48.972;10.686;2024-03-29T06:17:04;7.40;99.90
45945;DHT22;31655;48.972;10.686;2024-03-29T06:19:48;7.60;99.90
45945;DHT22;31655;48.972;10.686;2024-03-29T06:22:15;7.70;99.90
45945;DHT22;31655;48.972;10.686;2024-03-29T06:24:43;7.80;99.90
45945;DHT22;31655;48.972;10.686;2024-03-29T06:27:10;7.80;99.90
45945;DHT22;31655;48.972;10.686;2024-03-29T06:29:36;7.70;99.90
45945;DHT22;31655;48.972;10.686;2024-03-29T06:32:01;7.50;99.90
45945;DHT22;31655;48.972;10.686;2024-03-29T06:34:30;7.40;99.90
45945;DHT22;31655;48.972;10.686;2024-03-29T06:36:56;7.30;99.90
45945;DHT22;31655;48.972;10.686;2024-03-29T06:39:22;7.20;99.90
45945;DHT22;31655;48.972;10.686;2024-03-29T06:41:47;7.10;99.90
45945;DHT22;31655;48.972;10.686;2024-03-29T06:44:13;7.00;99.90
45945;DHT22;31655;48.972;10.686;2024-03-29T06:46:39;7.10;99.90
45945;DHT22;31655;48.972;10.686;2024-03-29T06:49:04;7.20;99.90
45945;DHT22;31655;48.972;10.686;2024-03-29T06:51:30;7.20;99.90
45945;DHT22;31655;48.972;10.686;2024-03-29T06:53:56;7.30;99.90
45945;DHT22;31655;48.972;10.686;2024-03-29T06:56:21;7.30;99.90
45945;DHT22;31655;48.972;10.686;2024-03-29T06:58:47;7.30;99.90
45945;DHT22;31655;48.972;10.686;2024-03-29T07:01:12;7.40;99.90
45945;DHT22;31655;48.972;10.686;2024-03-29T07:03:38;7.50;99.90
45945;DHT22;31655;48.972;10.686;2024-03-29T07:06:04;7.70;99.90
45945;DHT22;31655;48.972;10.686;2024-03-29T07:08:29;7.80;99.90
45945;DHT22;31655;48.972;10.686;2024-03-29T07:11:02;7.70;99.90
45945;DHT22;31655;48.972;10.686;2024-03-29T07:13:29;7.60;99.90
45945;DHT22;31655;48.972;10.686;2024-03-29T07:15:57;7.60;99.90
45945;DHT22;31655;48.972;10.686;2024-03-29T07:18:22;7.60;99.90
45945;DHT22;31655;48.972;10.686;2024-03-29T07:20:49;7.60;99.90
45945;DHT22;31655;48.972;10.686;2024-03-29T07:23:14;7.50;99.90
45945;DHT22;31655;48.972;10.686;2024-03-29T07:25:40;7.40;99.90
45945;DHT22;31655;48.972;10.686;2024-03-29T07:28:06;7.40;99.90
45945;DHT22;31655;48.972;10.686;2024-03-29T07:30:36;7.20;99.90
45945;DHT22;31655;48.972;10.686;2024-03-29T07:33:03;7.30;99.90
45945;DHT22;31655;48.972;10.686;2024-03-29T07:35:29;7.30;99.90
45945;DHT22;31655;48.972;10.686;2024-03-29T07:37:55;7.40;99.90
45945;DHT22;31655;48.972;10.686;2024-03-29T07:40:22;7.50;99.90
45945;DHT22;31655;48.972;10.686;2024-03-29T07:42:48;7.50;99.90
45945;DHT22;31655;48.972;10.686;2024-03-29T07:45:13;7.60;99.90
45945;DHT22;31655;48.972;10.686;2024-03-29T07:47:39;7.70;99.90
45945;DHT22;31655;48.972;10.686;2024-03-29T07:50:04;7.90;99.90
45945;DHT22;31655;48.972;10.686;2024-03-29T07:52:33;8.00;99.90
45945;DHT22;31655;48.972;10.686;2024-03-29T07:54:58;8.20;99.90
45945;DHT22;31655;48.972;10.686;2024-03-29T07:57:25;8.30;99.90
45945;DHT22;31655;48.972;10.686;2024-03-29T07:59:50;8.30;99.90
45945;DHT22;31655;48.972;10.686;2024-03-29T08:02:16;8.40;99.90
45945;DHT22;31655;48.972;10.686;2024-03-29T08:04:42;8.50;99.90
45945;DHT22;31655;48.972;10.686;2024-03-29T08:07:08;9.90;99.90
45945;DHT22;31655;48.972;10.686;2024-03-29T08:09:34;8.70;99.90
45945;DHT22;31655;48.972;10.686;2024-03-29T08:11:59;8.60;99.90
45945;DHT22;31655;48.972;10.686;2024-03-29T08:14:25;8.40;99.90
45945;DHT22;31655;48.972;10.686;2024-03-29T08:16:53;8.20;99.90
45945;DHT22;31655;48.972;10.686;2024-03-29T08:19:19;8.10;99.90
45945;DHT22;31655;48.972;10.686;2024-03-29T08:21:45;8.00;99.90
45945;DHT22;31655;48.972;10.686;2024-03-29T08:24:11;8.00;99.90
45945;DHT22;31655;48.972;10.686;2024-03-29T08:26:36;7.90;99.90
45945;DHT22;31655;48.972;10.686;2024-03-29T08:29:02;7.90;1.00
45945;DHT22;31655;48.972;10.686;2024-03-29T08:31:28;7.80;23.70
45945;DHT22;31655;48.972;10.686;2024-03-29T08:33:53;7.70;99.90
45945;DHT22;31655;48.972;10.686;2024-03-29T08:36:19;7.60;99.90
45945;DHT22;31655;48.972;10.686;2024-03-29T08:38:45;7.60;99.90
45945;DHT22;31655;48.972;10.686;2024-03-29T08:41:12;7.50;99.90
45945;DHT22;31655;48.972;10.686;2024-03-29T08:43:37;7.50;99.90
45945;DHT22;31655;48.972;10.686;2024-03-29T08:46:03;7.50;99.90
45945;DHT22;31655;48.972;10.686;2024-03-29T08:48:29;7.50;78.30
45945;DHT22;31655;48.972;10.686;2024-03-29T08:50:54;7.50;84.80
45945;DHT22;31655;48.972;10.686;2024-03-29T08:53:20;7.70;82.00
45945;DHT22;31655;48.972;10.686;2024-03-29T08:55:47;7.70;73.10
45945;DHT22;31655;48.972;10.686;2024-03-29T08:58:16;7.70;72.60
45945;DHT22;31655;48.972;10.686;2024-03-29T09:00:41;7.80;78.70
45945;DHT22;31655;48.972;10.686;2024-03-29T09:03:07;7.90;90.40
45945;DHT22;31655;48.972;10.686;2024-03-29T09:05:33;8.10;90.60
45945;DHT22;31655;48.972;10.686;2024-03-29T09:07:58;8.10;91.50
45945;DHT22;31655;48.972;10.686;2024-03-29T09:10:25;8.20;86.30
45945;DHT22;31655;48.972;10.686;2024-03-29T09:12:52;8.30;86.40
45945;DHT22;31655;48.972;10.686;2024-03-29T09:15:18;8.50;87.30
45945;DHT22;31655;48.972;10.686;2024-03-29T09:17:44;8.70;81.90
45945;DHT22;31655;48.972;10.686;2024-03-29T09:20:11;8.80;76.30
45945;DHT22;31655;48.972;10.686;2024-03-29T09:22:36;8.90;71.90
45945;DHT22;31655;48.972;10.686;2024-03-29T09:25:04;9.00;83.80
45945;DHT22;31655;48.972;10.686;2024-03-29T09:27:29;9.20;69.10
45945;DHT22;31655;48.972;10.686;2024-03-29T09:29:55;9.40;67.90
45945;DHT22;31655;48.972;10.686;2024-03-29T09:32:24;9.50;58.20
45945;DHT22;31655;48.972;10.686;2024-03-29T09:34:50;9.60;82.40
45945;DHT22;31655;48.972;10.686;2024-03-29T09:37:15;9.70;81.10
45945;DHT22;31655;48.972;10.686;2024-03-29T09:39:41;9.90;74.90
45945;DHT22;31655;48.972;10.686;2024-03-29T09:42:08;10.00;66.60
45945;DHT22;31655;48.972;10.686;2024-03-29T09:44:39;10.20;55.30
45945;DHT22;31655;48.972;10.686;2024-03-29T09:47:06;10.60;62.10
45945;DHT22;31655;48.972;10.686;2024-03-29T09:49:33;11.00;48.90
45945;DHT22;31655;48.972;10.686;2024-03-29T09:51:59;11.40;9.10
45945;DHT22;31655;48.972;10.686;2024-03-29T09:54:28;11.50;1.00
45945;DHT22;31655;48.972;10.686;2024-03-29T09:56:57;11.80;99.90
45945;DHT22;31655;48.972;10.686;2024-03-29T09:59:23;12.10;99.90
45945;DHT22;31655;48.972;10.686;2024-03-29T10:01:51;12.50;99.90
45945;DHT22;31655;48.972;10.686;2024-03-29T10:04:18;12.30;99.90
45945;DHT22;31655;48.972;10.686;2024-03-29T10:06:46;11.90;99.90
45945;DHT22;31655;48.972;10.686;2024-03-29T10:09:16;12.00;99.90
45945;DHT22;31655;48.972;10.686;2024-03-29T10:11:42;11.90;99.90
45945;DHT22;31655;48.972;10.686;2024-03-29T10:14:09;12.00;99.90
45945;DHT22;31655;48.972;10.686;2024-03-29T10:16:35;12.50;99.90
45945;DHT22;31655;48.972;10.686;2024-03-29T10:19:00;12.70;99.90
45945;DHT22;31655;48.972;10.686;2024-03-29T10:21:26;12.50;99.90
45945;DHT22;31655;48.972;10.686;2024-03-29T10:23:52;12.70;99.90
45945;DHT22;31655;48.972;10.686;2024-03-29T10:26:18;14.80;99.90
45945;DHT22;31655;48.972;10.686;2024-03-29T10:28:47;15.50;99.90
45945;DHT22;31655;48.972;10.686;2024-03-29T10:31:13;13.00;99.90
45945;DHT22;31655;48.972;10.686;2024-03-29T10:33:42;14.10;99.90
45945;DHT22;31655;48.972;10.686;2024-03-29T10:36:08;13.00;99.90
45945;DHT22;31655;48.972;10.686;2024-03-29T10:38:37;14.60;99.90
45945;DHT22;31655;48.972;10.686;2024-03-29T10:41:07;15.30;99.90
45945;DHT22;31655;48.972;10.686;2024-03-29T10:43:33;13.10;99.90
45945;DHT22;31655;48.972;10.686;2024-03-29T10:46:03;13.10;99.90
45945;DHT22;31655;48.972;10.686;2024-03-29T10:48:30;12.70;99.90
45945;DHT22;31655;48.972;10.686;2024-03-29T10:50:58;12.40;99.90
45945;DHT22;31655;48.972;10.686;2024-03-29T10:53:25;12.30;99.90
45945;DHT22;31655;48.972;10.686;2024-03-29T10:55:54;12.30;99.90
45945;DHT22;31655;48.972;10.686;2024-03-29T10:58:22;12.50;99.90
45945;DHT22;31655;48.972;10.686;2024-03-29T11:00:53;12.60;99.90
45945;DHT22;31655;48.972;10.686;2024-03-29T11:06:06;12.40;99.90
45945;DHT22;31655;48.972;10.686;2024-03-29T11:08:40;12.00;99.90
45945;DHT22;31655;48.972;10.686;2024-03-29T11:11:12;11.90;1.00
45945;DHT22;31655;48.972;10.686;2024-03-29T11:14:00;13.70;1.00
45945;DHT22;31655;48.972;10.686;2024-03-29T11:16:27;12.00;1.00
45945;DHT22;31655;48.972;10.686;2024-03-29T11:18:53;12.20;1.00
45945;DHT22;31655;48.972;10.686;2024-03-29T11:21:19;12.30;1.00
45945;DHT22;31655;48.972;10.686;2024-03-29T11:23:52;12.30;99.90
45945;DHT22;31655;48.972;10.686;2024-03-29T11:26:18;12.40;99.90
45945;DHT22;31655;48.972;10.686;2024-03-29T11:28:52;12.40;99.90
45945;DHT22;31655;48.972;10.686;2024-03-29T11:31:22;12.60;99.90
45945;DHT22;31655;48.972;10.686;2024-03-29T11:33:48;12.80;99.90
45945;DHT22;31655;48.972;10.686;2024-03-29T11:38:42;13.20;99.90
45945;DHT22;31655;48.972;10.686;2024-03-29T11:41:13;13.50;99.90
45945;DHT22;31655;48.972;10.686;2024-03-29T11:43:40;13.80;99.90
45945;DHT22;31655;48.972;10.686;2024-03-29T11:46:10;13.80;99.90
45945;DHT22;31655;48.972;10.686;2024-03-29T11:48:36;13.90;99.90
45945;DHT22;31655;48.972;10.686;2024-03-29T11:51:04;14.00;99.90
45945;DHT22;31655;48.972;10.686;2024-03-29T11:53:30;14.20;99.90
45945;DHT22;31655;48.972;10.686;2024-03-29T11:56:00;13.70;99.90
45945;DHT22;31655;48.972;10.686;2024-03-29T11:58:28;13.90;99.90
45945;DHT22;31655;48.972;10.686;2024-03-29T12:00:55;16.00;99.90
45945;DHT22;31655;48.972;10.686;2024-03-29T12:03:23;14.30;99.90
45945;DHT22;31655;48.972;10.686;2024-03-29T12:05:50;17.20;99.90
45945;DHT22;31655;48.972;10.686;2024-03-29T12:08:17;14.50;99.90
45945;DHT22;31655;48.972;10.686;2024-03-29T12:10:43;14.70;99.90
45945;DHT22;31655;48.972;10.686;2024-03-29T12:13:09;14.50;99.90
45945;DHT22;31655;48.972;10.686;2024-03-29T12:15:35;14.40;99.90
45945;DHT22;31655;48.972;10.686;2024-03-29T12:18:02;14.20;99.90
45945;DHT22;31655;48.972;10.686;2024-03-29T12:20:30;14.20;99.90
45945;DHT22;31655;48.972;10.686;2024-03-29T12:22:56;14.20;99.90
45945;DHT22;31655;48.972;10.686;2024-03-29T12:25:25;14.30;99.90
45945;DHT22;31655;48.972;10.686;2024-03-29T12:27:52;15.20;99.90
45945;DHT22;31655;48.972;10.686;2024-03-29T12:30:18;14.10;99.90
45945;DHT22;31655;48.972;10.686;2024-03-29T12:32:44;14.30;99.90
45945;DHT22;31655;48.972;10.686;2024-03-29T12:35:15;14.50;99.90
45945;DHT22;31655;48.972;10.686;2024-03-29T12:37:59;14.60;99.90
45945;DHT22;31655;48.972;10.686;2024-03-29T12:40:27;14.90;99.90
45945;DHT22;31655;48.972;10.686;2024-03-29T12:42:53;15.20;99.90
45945;DHT22;31655;48.972;10.686;2024-03-29T12:45:20;15.30;99.90
45945;DHT22;31655;48.972;10.686;2024-03-29T12:47:46;15.60;99.90
45945;DHT22;31655;48.972;10.686;2024-03-29T12:50:14;18.80;99.90
45945;DHT22;31655;48.972;10.686;2024-03-29T12:57:37;15.80;99.90
45945;DHT22;31655;48.972;10.686;2024-03-29T13:00:04;16.30;99.90
45945;DHT22;31655;48.972;10.686;2024-03-29T13:02:35;16.40;99.90
45945;DHT22;31655;48.972;10.686;2024-03-29T13:05:06;16.50;99.30
45945;DHT22;31655;48.972;10.686;2024-03-29T13:07:32;16.60;99.50
45945;DHT22;31655;48.972;10.686;2024-03-29T13:09:59;16.60;98.20
45945;DHT22;31655;48.972;10.686;2024-03-29T13:12:29;16.80;97.40
45945;DHT22;31655;48.972;10.686;2024-03-29T13:14:55;16.60;97.10
45945;DHT22;31655;48.972;10.686;2024-03-29T13:17:21;16.90;96.90
45945;DHT22;31655;48.972;10.686;2024-03-29T13:19:46;18.60;97.20
45945;DHT22;31655;48.972;10.686;2024-03-29T13:22:12;17.00;97.20
45945;DHT22;31655;48.972;10.686;2024-03-29T13:24:37;17.20;96.50
45945;DHT22;31655;48.972;10.686;2024-03-29T13:27:03;17.20;96.40
45945;DHT22;31655;48.972;10.686;2024-03-29T13:29:29;17.30;97.20
45945;DHT22;31655;48.972;10.686;2024-03-29T13:31:56;18.10;95.80
45945;DHT22;31655;48.972;10.686;2024-03-29T13:34:22;17.40;94.30
45945;DHT22;31655;48.972;10.686;2024-03-29T13:36:48;17.10;95.90
45945;DHT22;31655;48.972;10.686;2024-03-29T13:39:13;17.00;96.10
45945;DHT22;31655;48.972;10.686;2024-03-29T13:41:40;17.00;95.60
45945;DHT22;31655;48.972;10.686;2024-03-29T13:44:06;16.90;94.80
45945;DHT22;31655;48.972;10.686;2024-03-29T13:46:35;16.80;95.20
45945;DHT22;31655;48.972;10.686;2024-03-29T13:49:02;17.40;96.20
45945;DHT22;31655;48.972;10.686;2024-03-29T13:51:28;17.80;97.50
45945;DHT22;31655;48.972;10.686;2024-03-29T13:53:54;16.40;96.40
45945;DHT22;31655;48.972;10.686;2024-03-29T13:56:20;16.50;96.60
45945;DHT22;31655;48.972;10.686;2024-03-29T13:58:46;16.60;96.40
45945;DHT22;31655;48.972;10.686;2024-03-29T14:01:12;17.70;96.30
45945;DHT22;31655;48.972;10.686;2024-03-29T14:03:37;17.10;96.10
45945;DHT22;31655;48.972;10.686;2024-03-29T14:06:03;18.80;95.70
45945;DHT22;31655;48.972;10.686;2024-03-29T14:08:32;17.70;94.60
45945;DHT22;31655;48.972;10.686;2024-03-29T14:10:58;17.80;95.20
45945;DHT22;31655;48.972;10.686;2024-03-29T14:13:24;18.00;95.10
45945;DHT22;31655;48.972;10.686;2024-03-29T14:15:50;18.10;95.30
45945;DHT22;31655;48.972;10.686;2024-03-29T14:18:16;18.60;94.90
45945;DHT22;31655;48.972;10.686;2024-03-29T14:20:41;18.00;95.10
45945;DHT22;31655;48.972;10.686;2024-03-29T14:23:07;19.60;95.10
45945;DHT22;31655;48.972;10.686;2024-03-29T14:25:36;18.80;94.90
45945;DHT22;31655;48.972;10.686;2024-03-29T14:28:02;18.00;95.50
45945;DHT22;31655;48.972;10.686;2024-03-29T14:30:29;18.10;94.50
45945;DHT22;31655;48.972;10.686;2024-03-29T14:32:57;18.00;94.70
45945;DHT22;31655;48.972;10.686;2024-03-29T14:35:23;17.90;94.50
45945;DHT22;31655;48.972;10.686;2024-03-29T14:37:49;17.90;94.60
45945;DHT22;31655;48.972;10.686;2024-03-29T14:40:15;17.90;94.70
45945;DHT22;31655;48.972;10.686;2024-03-29T14:42:41;17.90;94.10
45945;DHT22;31655;48.972;10.686;2024-03-29T14:45:08;17.80;93.20
45945;DHT22;31655;48.972;10.686;2024-03-29T14:47:36;17.80;94.00
45945;DHT22;31655;48.972;10.686;2024-03-29T14:50:03;18.00;94.10
45945;DHT22;31655;48.972;10.686;2024-03-29T14:52:36;18.10;93.60
45945;DHT22;31655;48.972;10.686;2024-03-29T14:55:03;18.10;93.70
45945;DHT22;31655;48.972;10.686;2024-03-29T14:57:29;18.30;93.10
45945;DHT22;31655;48.972;10.686;2024-03-29T14:59:55;18.40;92.40
45945;DHT22;31655;48.972;10.686;2024-03-29T15:02:20;18.40;92.10
45945;DHT22;31655;48.972;10.686;2024-03-29T15:04:46;19.60;92.30
45945;DHT22;31655;48.972;10.686;2024-03-29T15:07:12;18.20;92.70
45945;DHT22;31655;48.972;10.686;2024-03-29T15:09:37;18.10;95.60
45945;DHT22;31655;48.972;10.686;2024-03-29T15:12:03;17.60;97.20
45945;DHT22;31655;48.972;10.686;2024-03-29T15:14:30;17.60;98.00
45945;DHT22;31655;48.972;10.686;2024-03-29T15:16:55;18.90;99.40
45945;DHT22;31655;48.972;10.686;2024-03-29T15:19:21;17.80;99.90
45945;DHT22;31655;48.972;10.686;2024-03-29T15:21:47;17.20;99.90
45945;DHT22;31655;48.972;10.686;2024-03-29T15:24:14;17.30;99.90
45945;DHT22;31655;48.972;10.686;2024-03-29T15:26:40;17.40;99.90
45945;DHT22;31655;48.972;10.686;2024-03-29T15:29:05;17.60;99.90
45945;DHT22;31655;48.972;10.686;2024-03-29T15:31:39;17.60;98.70
45945;DHT22;31655;48.972;10.686;2024-03-29T15:34:09;17.60;98.20
45945;DHT22;31655;48.972;10.686;2024-03-29T15:36:35;18.30;98.80